Time;durP1;ratioP1;P1;durP2;ratioP2;P2;SDS_P1;SDS_P2;PMS_P1;PMS_P2;Temp;Humidity;BMP_temperature;BMP_pressure;BME280_temperature;BME280_humidity;BME280_pressure;Samples;Min_cycle;Max_cycle;Signal;HPM_P1;HPM_P2
2023/03/05 00:01:29;;;;;;;6.07;1.98;;;;;;;6.22;41.67;101759.25;5053303;28;20045;-76
2023/03/05 00:03:59;;;;;;;4.20;1.60;;;;;;;6.22;41.47;101763.81;5042277;28;20524;-76
2023/03/05 00:06:28;;;;;;;3.53;1.40;;;;;;;6.21;41.35;101756.63;5046335;28;20055;-77
2023/03/05 00:08:57;;;;;;;4.68;1.25;;;;;;;6.19;41.28;101750.41;5055064;28;20350;-76
2023/03/05 00:11:28;;;;;;;5.45;1.35;;;;;;;6.19;41.28;101751.31;5054224;28;20455;-76
2023/03/05 00:13:58;;;;;;;3.72;1.40;;;;;;;6.19;41.44;101761.28;5055504;28;20056;-76
2023/03/05 00:16:27;;;;;;;5.68;1.50;;;;;;;6.18;41.50;101759.53;5053018;28;20037;-76
2023/03/05 00:18:55;;;;;;;4.57;1.50;;;;;;;6.16;41.55;101756.91;5054207;28;20124;-76
2023/03/05 00:21:27;;;;;;;3.75;1.42;;;;;;;6.16;41.48;101759.59;5053401;28;20500;-76
2023/03/05 00:23:56;;;;;;;5.72;1.40;;;;;;;6.14;41.50;101753.38;5052268;28;20468;-76
2023/03/05 00:26:26;;;;;;;4.55;1.48;;;;;;;6.14;41.52;101750.66;5042060;28;20056;-76
2023/03/05 00:28:54;;;;;;;4.35;1.48;;;;;;;6.14;41.50;101755.22;5035535;28;20519;-76
2023/03/05 00:31:24;;;;;;;5.88;1.90;;;;;;;6.13;41.67;101750.72;5034520;28;20052;-76
2023/03/05 00:33:53;;;;;;;4.53;1.40;;;;;;;6.11;41.45;101744.53;5051375;28;20048;-77
2023/03/05 00:36:23;;;;;;;4.50;1.30;;;;;;;6.11;41.76;101747.25;5060763;28;20036;-76
2023/03/05 00:38:52;;;;;;;5.80;1.70;;;;;;;6.10;41.31;101740.06;5052071;28;20043;-76
2023/03/05 00:41:20;;;;;;;4.45;1.60;;;;;;;6.08;41.63;101740.13;5034355;28;20056;-76
2023/03/05 00:43:48;;;;;;;6.47;2.65;;;;;;;6.07;41.54;101736.53;5033184;28;20080;-76
2023/03/05 00:46:16;;;;;;;7.10;1.48;;;;;;;6.07;41.91;101735.66;5052343;28;20052;-76
2023/03/05 00:48:45;;;;;;;3.78;1.23;;;;;;;6.06;41.59;101737.50;5059281;28;20036;-76
2023/03/05 00:51:13;;;;;;;4.93;1.40;;;;;;;6.05;41.55;101732.13;5036969;28;20084;-76
2023/03/05 00:53:41;;;;;;;4.07;1.40;;;;;;;6.05;41.51;101732.13;5046850;28;20052;-76
2023/03/05 00:56:10;;;;;;;5.43;1.23;;;;;;;6.05;41.63;101729.41;5051768;28;20047;-76
2023/03/05 00:58:38;;;;;;;3.92;1.42;;;;;;;6.03;41.71;101732.25;5029509;28;20372;-76
2023/03/05 01:01:06;;;;;;;3.50;1.20;;;;;;;6.04;41.50;101727.66;5037147;28;20048;-76
2023/03/05 01:03:35;;;;;;;3.60;1.67;;;;;;;6.03;41.70;101720.50;5051463;28;20072;-76
2023/03/05 01:06:06;;;;;;;3.55;1.23;;;;;;;6.03;41.85;101724.09;5041431;28;20049;-76
2023/03/05 01:08:35;;;;;;;3.55;1.40;;;;;;;6.00;41.77;101715.22;5027064;28;20153;-77
2023/03/05 01:11:04;;;;;;;3.55;1.38;;;;;;;6.01;41.66;101722.41;5045046;28;20104;-76
2023/03/05 01:13:34;;;;;;;5.20;1.40;;;;;;;6.01;41.79;101717.84;5034097;28;20075;-76
2023/03/05 01:16:03;;;;;;;4.32;1.73;;;;;;;5.99;41.68;101708.91;5051354;28;20053;-76
2023/03/05 01:18:31;;;;;;;4.90;1.48;;;;;;;5.99;41.90;101708.03;5051418;28;20045;-76
2023/03/05 01:20:59;;;;;;;5.35;1.45;;;;;;;5.99;41.52;101708.03;5038112;28;20110;-76
2023/03/05 01:23:27;;;;;;;4.53;1.58;;;;;;;5.98;41.63;101711.69;5034172;28;20441;-76
2023/03/05 01:25:57;;;;;;;4.80;1.38;;;;;;;5.98;41.71;101707.13;5042378;28;20067;-76
2023/03/05 01:28:25;;;;;;;5.65;1.45;;;;;;;5.98;41.59;101706.25;5037886;28;20126;-76
2023/03/05 01:30:55;;;;;;;4.97;1.55;;;;;;;5.97;41.88;101702.66;5050458;28;20048;-76
2023/03/05 01:33:23;;;;;;;4.13;1.67;;;;;;;5.97;41.85;101696.34;5052911;28;20105;-77
2023/03/05 01:35:51;;;;;;;4.40;1.40;;;;;;;5.96;41.96;101691.88;5056635;28;20060;-76
2023/03/05 01:38:19;;;;;;;3.53;1.38;;;;;;;5.95;41.79;101684.72;5034477;28;20468;-76
2023/03/05 01:40:47;;;;;;;6.60;1.40;;;;;;;5.95;41.96;101684.72;5039944;28;20041;-76
2023/03/05 01:43:27;;;;;;;3.80;1.10;;;;;;;5.96;41.86;101681.00;5035001;28;20107;-76
2023/03/05 01:46:24;;;;;;;3.35;1.10;;;;;;;5.91;42.14;101683.13;5064109;28;20052;-76
2023/03/05 01:48:55;;;;;;;4.63;1.20;;;;;;;5.92;41.87;101679.44;5044168;28;20071;-76
2023/03/05 01:51:30;;;;;;;2.47;1.20;;;;;;;5.91;41.85;101675.84;5052360;28;20056;-76
2023/03/05 01:54:00;;;;;;;3.83;1.33;;;;;;;5.89;41.57;101677.75;5054024;28;20174;-76
2023/03/05 01:56:29;;;;;;;6.00;1.65;;;;;;;5.89;41.72;101666.88;5051706;28;20053;-76
2023/03/05 01:59:02;;;;;;;3.35;1.40;;;;;;;5.89;41.80;101671.44;5049669;28;20480;-76
2023/03/05 02:01:39;;;;;;;2.90;1.10;;;;;;;5.89;41.96;101664.19;5049769;28;20052;-76
2023/03/05 02:04:09;;;;;;;4.15;1.85;;;;;;;5.86;41.85;101669.78;5049705;28;20037;-76
2023/03/05 02:06:39;;;;;;;3.53;1.33;;;;;;;5.86;41.88;101658.06;5024860;28;20598;-76
2023/03/05 02:09:07;;;;;;;4.70;1.30;;;;;;;5.86;41.88;101652.63;5032499;28;20037;-77
2023/03/05 02:11:36;;;;;;;4.45;1.30;;;;;;;5.86;41.87;101644.47;5024601;28;20048;-76
2023/03/05 02:14:09;;;;;;;4.13;1.00;;;;;;;5.85;41.55;101648.16;5052673;28;20049;-76
2023/03/05 02:16:41;;;;;;;5.68;1.35;;;;;;;5.84;41.62;101649.97;5042292;28;20075;-77
2023/03/05 02:19:12;;;;;;;3.22;1.20;;;;;;;5.84;41.71;101638.25;5039216;28;20184;-76
2023/03/05 02:21:43;;;;;;;4.85;1.30;;;;;;;5.85;41.69;101645.44;5069518;28;20052;-76
2023/03/05 02:24:13;;;;;;;4.85;1.25;;;;;;;5.83;41.84;101639.19;5068509;28;20032;-76
2023/03/05 02:26:44;;;;;;;5.00;1.45;;;;;;;5.82;41.79;101641.03;5057265;28;20041;-76
2023/03/05 02:29:17;;;;;;;3.58;1.58;;;;;;;5.83;42.01;101634.63;5047012;28;20044;-77
2023/03/05 02:31:46;;;;;;;2.90;1.33;;;;;;;5.80;41.92;101636.63;5051467;28;20049;-77
2023/03/05 02:34:14;;;;;;;5.40;1.75;;;;;;;5.81;42.22;101636.56;5051963;28;20060;-76
2023/03/05 02:36:44;;;;;;;3.85;1.50;;;;;;;5.82;42.06;101627.44;5056847;28;20045;-76
2023/03/05 02:39:12;;;;;;;4.55;1.40;;;;;;;5.81;42.03;101624.81;5048682;28;20056;-77
2023/03/05 02:41:40;;;;;;;3.65;1.55;;;;;;;5.80;42.06;101618.50;5040956;28;20041;-77
2023/03/05 02:44:08;;;;;;;5.45;1.48;;;;;;;5.81;41.87;101616.66;5035522;28;20049;-76
2023/03/05 02:46:36;;;;;;;4.55;1.45;;;;;;;5.79;41.98;101616.75;5042828;28;20236;-77
2023/03/05 02:49:04;;;;;;;4.95;1.50;;;;;;;5.80;42.01;101609.47;5056778;28;20110;-76
2023/03/05 02:51:32;;;;;;;4.57;1.40;;;;;;;5.78;42.02;101606.88;5049738;28;20037;-76
2023/03/05 02:54:03;;;;;;;4.45;1.50;;;;;;;5.79;41.79;101611.31;5050402;28;20120;-76
2023/03/05 02:56:31;;;;;;;4.22;1.25;;;;;;;5.76;41.88;101608.78;5067176;28;20049;-76
2023/03/05 02:59:00;;;;;;;5.55;1.60;;;;;;;5.76;41.88;101605.19;5039803;28;20068;-77
2023/03/05 03:01:28;;;;;;;4.20;1.30;;;;;;;5.75;41.99;101606.16;5039958;28;20053;-76
2023/03/05 03:03:56;;;;;;;4.03;1.30;;;;;;;5.72;41.77;101609.91;5035492;28;20056;-77
2023/03/05 03:06:24;;;;;;;3.65;1.30;;;;;;;5.72;41.78;101599.03;5053038;28;20048;-76
2023/03/05 03:08:52;;;;;;;3.58;1.40;;;;;;;5.72;41.92;101598.16;5051801;28;20567;-76
2023/03/05 03:11:21;;;;;;;4.10;1.52;;;;;;;5.72;42.04;101595.44;5038254;28;20053;-76
2023/03/05 03:13:52;;;;;;;6.13;1.50;;;;;;;5.73;42.14;101592.66;5029453;28;20045;-75
2023/03/05 03:16:20;;;;;;;4.88;1.60;;;;;;;5.72;41.85;101590.00;5058336;28;20155;-75
2023/03/05 03:18:48;;;;;;;4.43;1.60;;;;;;;5.72;41.98;101584.56;5028649;28;20043;-76
2023/03/05 03:21:21;;;;;;;5.47;1.55;;;;;;;5.73;42.11;101578.19;5051158;28;20120;-76
2023/03/05 03:23:49;;;;;;;8.40;2.08;;;;;;;5.71;42.11;101580.13;5032573;28;20041;-76
2023/03/05 03:26:18;;;;;;;6.75;2.25;;;;;;;5.72;42.23;101579.16;5046449;28;20045;-76
2023/03/05 03:28:47;;;;;;;4.97;1.52;;;;;;;5.73;42.04;101576.34;5058387;28;20052;-75
2023/03/05 03:31:15;;;;;;;4.75;1.63;;;;;;;5.70;42.02;101578.38;5059957;28;20072;-76
2023/03/05 03:33:44;;;;;;;4.90;1.52;;;;;;;5.68;41.99;101576.63;5052820;28;20071;-75
2023/03/05 03:36:12;;;;;;;5.00;1.98;;;;;;;5.68;42.05;101573.03;5051395;28;20500;-75
2023/03/05 03:38:40;;;;;;;6.53;2.33;;;;;;;5.66;42.11;101570.38;5054313;28;20055;-75
2023/03/05 03:41:08;;;;;;;4.63;1.75;;;;;;;5.65;42.24;101562.31;5046702;28;20045;-76
2023/03/05 03:43:37;;;;;;;3.65;1.58;;;;;;;5.65;42.36;101565.03;5040535;28;20492;-76
2023/03/05 03:46:06;;;;;;;3.88;1.40;;;;;;;5.66;42.19;101561.38;5061924;28;20044;-76
2023/03/05 03:48:35;;;;;;;6.60;1.95;;;;;;;5.63;42.26;101553.38;5049306;28;20041;-76
2023/03/05 03:51:05;;;;;;;5.35;1.65;;;;;;;5.64;42.31;101557.84;5034855;28;20045;-76
2023/03/05 03:53:33;;;;;;;2.75;1.33;;;;;;;5.62;42.25;101559.81;5052672;28;20045;-76
2023/03/05 03:56:01;;;;;;;2.53;1.27;;;;;;;5.60;42.22;101543.59;5051808;28;20214;-75
2023/03/05 03:58:29;;;;;;;4.25;1.10;;;;;;;5.59;42.18;101549.97;5040292;28;20056;-76
2023/03/05 04:00:57;;;;;;;5.75;1.40;;;;;;;5.57;42.23;101543.75;5042276;28;20496;-75
2023/03/05 04:03:26;;;;;;;2.40;0.93;;;;;;;5.58;42.00;101544.63;5032418;28;20065;-76
2023/03/05 04:05:54;;;;;;;2.38;1.00;;;;;;;5.55;41.97;101540.22;5056115;28;20053;-76
2023/03/05 04:08:22;;;;;;;1.80;0.90;;;;;;;5.55;42.06;101537.53;5054844;28;20044;-75
2023/03/05 04:10:50;;;;;;;3.20;0.88;;;;;;;5.54;42.13;101537.63;5042819;28;20040;-75
2023/03/05 04:13:17;;;;;;;4.05;0.93;;;;;;;5.53;42.04;101535.88;5040228;28;20047;-75
2023/03/05 04:15:45;;;;;;;3.88;1.10;;;;;;;5.52;42.04;101532.28;5051759;28;20041;-76
2023/03/05 04:18:13;;;;;;;3.15;0.80;;;;;;;5.51;42.08;101526.94;5056104;28;20455;-75
2023/03/05 04:20:43;;;;;;;3.45;1.00;;;;;;;5.52;42.22;101529.56;5029843;28;20049;-76
2023/03/05 04:23:10;;;;;;;4.22;1.58;;;;;;;5.50;42.06;101525.19;5037027;28;20083;-75
2023/03/05 04:25:38;;;;;;;4.05;1.35;;;;;;;5.49;41.99;101521.59;5044598;28;20152;-75
2023/03/05 04:28:06;;;;;;;4.38;1.10;;;;;;;5.48;42.14;101522.53;5043583;28;20493;-76
2023/03/05 04:30:34;;;;;;;2.72;1.20;;;;;;;5.48;42.34;101521.66;5036042;28;20123;-75
2023/03/05 04:33:02;;;;;;;3.72;1.50;;;;;;;5.46;42.33;101513.59;5032320;28;20049;-76
2023/03/05 04:35:30;;;;;;;3.60;1.23;;;;;;;5.46;42.62;101504.59;5041940;28;20240;-75
2023/03/05 04:38:00;;;;;;;3.25;1.27;;;;;;;5.48;42.44;101503.53;5057623;28;20124;-75
2023/03/05 04:40:28;;;;;;;2.75;1.08;;;;;;;5.46;42.33;101497.31;5040899;28;20546;-75
2023/03/05 04:42:58;;;;;;;3.03;1.20;;;;;;;5.46;42.23;101499.19;5035581;28;20449;-75
2023/03/05 04:45:26;;;;;;;4.43;1.35;;;;;;;5.46;42.51;101500.03;5068135;28;20041;-75
2023/03/05 04:47:54;;;;;;;3.70;1.33;;;;;;;5.47;42.40;101500.91;5034407;28;20527;-75
2023/03/05 04:50:22;;;;;;;2.97;1.20;;;;;;;5.45;42.41;101500.13;5032827;28;20099;-75
2023/03/05 04:52:50;;;;;;;3.97;1.25;;;;;;;5.45;42.26;101503.72;5052162;28;20048;-75
2023/03/05 04:55:19;;;;;;;2.80;1.20;;;;;;;5.46;42.35;101499.19;5032987;28;20103;-75
2023/03/05 04:57:47;;;;;;;5.25;1.10;;;;;;;5.43;42.45;101497.50;5051577;28;20043;-75
2023/03/05 05:00:17;;;;;;;2.97;0.90;;;;;;;5.45;42.42;101492.88;5032099;28;20044;-76
2023/03/05 05:02:47;;;;;;;3.67;1.20;;;;;;;5.44;42.41;101498.38;5033823;28;20041;-75
2023/03/05 05:05:18;;;;;;;3.72;1.25;;;;;;;5.43;42.51;101491.19;5050603;28;20231;-75
2023/03/05 05:07:46;;;;;;;5.25;1.30;;;;;;;5.42;42.61;101489.44;5058339;28;20075;-76
2023/03/05 05:10:15;;;;;;;4.53;1.20;;;;;;;5.42;42.67;101490.31;5032089;28;20053;-75
2023/03/05 05:12:45;;;;;;;5.95;1.50;;;;;;;5.44;42.54;101482.09;5051629;28;20342;-75
2023/03/05 05:15:13;;;;;;;2.83;1.08;;;;;;;5.42;42.79;101481.28;5036260;28;20051;-75
2023/03/05 05:17:40;;;;;;;4.20;1.45;;;;;;;5.41;42.60;101475.00;5050515;28;20382;-75
2023/03/05 05:20:13;;;;;;;4.22;1.65;;;;;;;5.43;42.76;101469.47;5050005;28;20535;-74
2023/03/05 05:22:42;;;;;;;;;;;;;;;5.18;43.10;101469.97;5044050;28;20052;-75
2023/03/05 05:25:10;;;;;;;3.75;1.30;;;;;;;5.36;42.61;101466.25;5052917;28;20335;-75
2023/03/05 05:27:39;;;;;;;3.88;1.20;;;;;;;5.40;42.44;101470.50;5044495;28;20579;-75
2023/03/05 05:30:10;;;;;;;5.05;1.38;;;;;;;5.43;42.58;101469.47;5064959;28;20127;-75
2023/03/05 05:32:38;;;;;;;5.20;1.55;;;;;;;5.40;42.53;101470.50;5044288;28;20048;-75
2023/03/05 05:35:07;;;;;;;3.90;1.42;;;;;;;5.40;42.45;101453.34;5000615;28;20533;-75
2023/03/05 05:37:34;;;;;;;3.97;1.38;;;;;;;5.39;42.34;101457.03;5056927;28;20041;-75
2023/03/05 05:40:05;;;;;;;4.35;1.50;;;;;;;5.38;42.52;101449.88;5014235;28;20048;-75
2023/03/05 05:42:33;;;;;;;5.05;1.50;;;;;;;5.38;42.38;101449.88;5059797;28;20044;-75
2023/03/05 05:45:01;;;;;;;4.53;1.30;;;;;;;5.38;42.47;101445.28;5047838;28;20243;-75
2023/03/05 05:47:31;;;;;;;4.40;1.38;;;;;;;5.38;42.60;101455.31;5049547;28;20056;-75
2023/03/05 05:49:58;;;;;;;3.55;1.38;;;;;;;5.38;42.42;101456.16;5067606;28;20349;-76
2023/03/05 05:52:26;;;;;;;3.53;1.45;;;;;;;5.38;42.69;101455.31;5051588;28;20378;-75
2023/03/05 05:54:54;;;;;;;4.53;1.73;;;;;;;5.37;42.57;101458.97;5030313;28;20095;-76
2023/03/05 05:57:23;;;;;;;5.30;1.67;;;;;;;5.38;42.58;101452.59;5052324;28;20041;-75
2023/03/05 05:59:52;;;;;;;5.38;1.70;;;;;;;5.35;42.64;101452.75;5057206;28;20044;-75
2023/03/05 06:02:20;;;;;;;3.92;1.25;;;;;;;5.36;42.72;101454.50;5050985;28;20091;-76
2023/03/05 06:04:49;;;;;;;3.88;1.50;;;;;;;5.36;42.67;101452.66;5054327;28;20155;-75
2023/03/05 06:07:18;;;;;;;4.00;1.50;;;;;;;5.35;42.62;101453.63;5041675;28;20148;-75
2023/03/05 06:09:46;;;;;;;3.33;1.25;;;;;;;5.35;42.67;101450.03;5056894;28;20045;-75
2023/03/05 06:12:14;;;;;;;5.60;1.60;;;;;;;5.34;42.92;101451.88;5043791;28;20052;-75
2023/03/05 06:14:42;;;;;;;3.85;1.65;;;;;;;5.34;43.11;101448.28;5049976;28;20044;-75
2023/03/05 06:17:10;;;;;;;6.07;1.83;;;;;;;5.33;42.65;101450.13;5048849;28;20072;-75
2023/03/05 06:19:43;;;;;;;4.60;2.13;;;;;;;5.30;42.67;101443.00;5047398;28;20042;-75
2023/03/05 06:22:14;;;;;;;3.35;1.38;;;;;;;5.33;42.73;101449.22;5053932;28;20056;-75
2023/03/05 06:24:42;;;;;;;5.15;1.50;;;;;;;5.31;42.68;101449.31;5028773;28;20060;-75
2023/03/05 06:27:09;;;;;;;3.75;1.50;;;;;;;5.29;42.57;101452.09;5066001;28;20045;-75
2023/03/05 06:29:37;;;;;;;3.95;1.80;;;;;;;5.29;42.62;101452.09;5002158;28;20052;-75
2023/03/05 06:32:06;;;;;;;3.47;1.30;;;;;;;5.28;42.65;101447.66;5051632;28;20041;-76
2023/03/05 06:34:34;;;;;;;4.05;1.75;;;;;;;5.27;42.58;101442.31;5055740;28;20060;-76
2023/03/05 06:37:02;;;;;;;3.40;1.50;;;;;;;5.27;42.98;101445.03;5060955;28;20044;-75
2023/03/05 06:39:32;;;;;;;4.90;1.70;;;;;;;5.27;42.64;101442.31;5046858;28;20676;-75
2023/03/05 06:42:00;;;;;;;3.08;1.40;;;;;;;5.25;42.61;101447.84;5053204;28;20056;-75
2023/03/05 06:44:28;;;;;;;2.70;1.35;;;;;;;5.24;42.64;101442.47;5036083;28;20456;-76
2023/03/05 06:46:56;;;;;;;3.65;1.55;;;;;;;5.24;42.69;101451.50;5056205;28;20128;-75
2023/03/05 06:49:24;;;;;;;4.68;1.60;;;;;;;5.24;42.70;101443.38;5053734;28;20048;-75
2023/03/05 06:51:52;;;;;;;3.22;1.85;;;;;;;5.24;42.67;101448.78;5049309;28;20385;-75
2023/03/05 06:54:20;;;;;;;5.13;1.63;;;;;;;5.24;42.69;101456.94;5038280;28;20135;-75
2023/03/05 06:56:49;;;;;;;3.83;1.42;;;;;;;5.26;42.80;101451.41;5048558;28;20090;-75
2023/03/05 06:59:17;;;;;;;4.95;1.50;;;;;;;5.26;42.70;101448.72;5048383;28;20047;-75
2023/03/05 07:01:45;;;;;;;3.20;1.63;;;;;;;5.26;42.68;101446.88;5046763;28;20059;-75
2023/03/05 07:04:14;;;;;;;3.08;1.13;;;;;;;5.27;42.61;101450.47;5049556;28;20037;-75
2023/03/05 07:06:42;;;;;;;3.65;1.75;;;;;;;5.27;42.68;101442.31;5050671;28;20744;-75
2023/03/05 07:09:13;;;;;;;8.25;1.80;;;;;;;5.28;42.70;101446.78;5001463;28;20054;-75
2023/03/05 07:11:41;;;;;;;6.68;1.90;;;;;;;5.28;42.59;101446.78;5036347;28;20102;-75
2023/03/05 07:14:10;;;;;;;3.85;1.70;;;;;;;5.28;42.65;101431.38;5048115;28;20509;-76
2023/03/05 07:16:38;;;;;;;5.55;1.95;;;;;;;5.28;42.84;101433.22;5042310;28;20071;-75
2023/03/05 07:19:09;;;;;;;4.55;1.67;;;;;;;5.28;42.76;101428.69;5049129;28;20033;-75
2023/03/05 07:21:38;;;;;;;4.35;1.70;;;;;;;5.29;42.76;101432.25;5032323;28;20068;-75
2023/03/05 07:24:07;;;;;;;4.00;1.88;;;;;;;5.31;42.73;101427.59;5022918;28;20544;-75
2023/03/05 07:26:35;;;;;;;4.35;1.60;;;;;;;5.32;42.71;101423.06;5045609;28;20041;-75
2023/03/05 07:29:04;;;;;;;4.55;1.60;;;;;;;5.34;42.74;101430.16;5056172;28;20055;-75
2023/03/05 07:31:33;;;;;;;4.40;1.90;;;;;;;5.34;42.73;101432.88;5050006;28;20037;-75
2023/03/05 07:34:03;;;;;;;5.25;1.88;;;;;;;5.35;42.74;101431.03;5016461;28;20114;-75
2023/03/05 07:36:33;;;;;;;6.22;2.00;;;;;;;5.35;42.58;101431.91;5056807;28;20503;-76
2023/03/05 07:39:03;;;;;;;4.20;2.00;;;;;;;5.35;42.72;101425.59;5043477;28;20076;-76
2023/03/05 07:41:31;;;;;;;3.80;1.60;;;;;;;5.35;42.78;101428.31;5055504;28;20050;-76
2023/03/05 07:43:59;;;;;;;5.03;2.20;;;;;;;5.36;42.70;101432.78;5047948;28;20092;-76
2023/03/05 07:46:30;;;;;;;3.92;1.92;;;;;;;5.36;42.88;101422.81;5051710;28;20048;-76
2023/03/05 07:49:00;;;;;;;4.82;1.65;;;;;;;5.36;42.92;101422.81;5071921;28;20044;-76
2023/03/05 07:51:28;;;;;;;4.35;1.65;;;;;;;5.36;42.91;101420.09;5044991;28;20054;-76
2023/03/05 07:53:58;;;;;;;4.20;1.70;;;;;;;5.36;42.84;101420.09;5046508;28;20640;-76
2023/03/05 07:56:30;;;;;;;5.82;1.85;;;;;;;5.37;42.97;101416.41;5051665;28;20048;-76
2023/03/05 07:58:58;;;;;;;5.03;1.83;;;;;;;5.34;43.15;101416.59;5051214;28;20052;-76
2023/03/05 08:01:26;;;;;;;5.10;1.73;;;;;;;5.37;43.07;101419.13;5042094;28;20053;-76
2023/03/05 08:03:54;;;;;;;4.03;1.88;;;;;;;5.38;42.94;101414.59;5029272;28;20479;-76
2023/03/05 08:06:23;;;;;;;4.13;1.90;;;;;;;5.39;43.19;101411.75;5052397;28;20052;-76
2023/03/05 08:08:51;;;;;;;5.65;2.10;;;;;;;5.40;43.06;101415.34;5032611;28;20049;-76
2023/03/05 08:11:19;;;;;;;4.28;1.80;;;;;;;5.41;42.77;101407.13;5050838;28;20048;-76
2023/03/05 08:13:47;;;;;;;4.32;2.30;;;;;;;5.42;43.01;101406.16;5036182;28;20056;-76
2023/03/05 08:16:17;;;;;;;4.47;1.83;;;;;;;5.43;43.03;101405.22;5054848;28;20048;-76
2023/03/05 08:18:45;;;;;;;5.10;1.85;;;;;;;5.43;42.98;101402.50;5050879;28;20135;-75
2023/03/05 08:21:18;;;;;;;6.13;2.10;;;;;;;5.45;42.88;101402.41;5060066;28;20095;-75
2023/03/05 08:23:47;;;;;;;5.00;2.03;;;;;;;5.42;43.07;101398.03;5049923;28;20511;-75
2023/03/05 08:26:17;;;;;;;6.15;2.25;;;;;;;5.45;43.11;101396.97;5034244;28;20135;-75
2023/03/05 08:28:46;;;;;;;5.15;2.15;;;;;;;5.44;43.08;101392.50;5023203;28;20143;-75
2023/03/05 08:31:15;;;;;;;9.25;2.30;;;;;;;5.46;43.02;101394.16;5049141;28;20049;-75
2023/03/05 08:33:46;;;;;;;6.18;2.20;;;;;;;5.44;43.02;101381.66;5033527;28;20521;-75
2023/03/05 08:36:14;;;;;;;4.60;1.73;;;;;;;5.45;43.00;101387.00;5051988;28;20045;-75
2023/03/05 08:38:43;;;;;;;5.82;1.85;;;;;;;5.45;42.93;101384.28;5055471;28;20044;-75
2023/03/05 08:41:13;;;;;;;4.95;1.85;;;;;;;5.47;42.86;101384.16;5035838;28;20139;-75
2023/03/05 08:43:41;;;;;;;5.55;2.17;;;;;;;5.46;43.14;101377.84;5007723;28;20373;-75
2023/03/05 08:46:11;;;;;;;5.28;2.10;;;;;;;5.48;43.12;101381.38;5038079;28;20055;-75
2023/03/05 08:48:39;;;;;;;6.38;2.08;;;;;;;5.48;43.06;101383.22;5024378;28;20045;-75
2023/03/05 08:51:08;;;;;;;4.05;2.03;;;;;;;5.49;43.08;101374.09;5057110;28;20053;-75
2023/03/05 08:53:36;;;;;;;5.80;2.20;;;;;;;5.49;43.14;101377.69;5033739;28;20040;-74
2023/03/05 08:56:04;;;;;;;6.18;2.30;;;;;;;5.51;43.31;101380.31;5034660;28;20447;-75
2023/03/05 08:58:34;;;;;;;4.00;2.00;;;;;;;5.52;43.49;101372.09;5049877;28;20071;-75
2023/03/05 09:01:02;;;;;;;4.78;2.40;;;;;;;5.52;43.34;101366.66;5054899;28;20076;-75
2023/03/05 09:03:30;;;;;;;4.38;1.90;;;;;;;5.52;43.49;101371.22;5051702;28;20053;-75
2023/03/05 09:06:03;;;;;;;5.30;1.95;;;;;;;5.55;43.68;101368.31;4995857;28;20037;-75
2023/03/05 09:08:33;;;;;;;4.50;1.90;;;;;;;5.52;43.55;101369.38;5041945;28;20052;-75
2023/03/05 09:11:04;;;;;;;6.80;2.30;;;;;;;5.54;43.59;101363.88;5034617;28;20087;-76
2023/03/05 09:13:34;;;;;;;5.40;2.13;;;;;;;5.56;43.61;101362.78;5041611;28;20040;-75
2023/03/05 09:16:05;;;;;;;5.25;2.10;;;;;;;5.57;43.47;101363.66;5055034;28;20052;-75
2023/03/05 09:18:35;;;;;;;5.82;2.40;;;;;;;5.57;43.59;101352.81;5033501;28;20055;-75
2023/03/05 09:21:05;;;;;;;4.65;2.22;;;;;;;5.59;43.31;101356.31;5032552;28;20520;-76
2023/03/05 09:23:33;;;;;;;4.75;2.28;;;;;;;5.59;43.35;101349.03;5051135;28;20045;-75
2023/03/05 09:26:01;;;;;;;4.53;2.20;;;;;;;5.59;43.26;101348.16;5051237;28;20313;-75
2023/03/05 09:28:29;;;;;;;3.85;2.05;;;;;;;5.60;43.25;101347.22;5049874;28;20103;-76
2023/03/05 09:31:02;;;;;;;6.40;2.53;;;;;;;5.64;43.45;101348.75;5047259;28;20044;-76
2023/03/05 09:33:31;;;;;;;4.55;2.90;;;;;;;5.63;43.32;101338.88;5022284;28;20083;-76
2023/03/05 09:35:59;;;;;;;5.15;2.03;;;;;;;5.64;43.33;101340.63;5066188;28;20091;-76
2023/03/05 09:38:27;;;;;;;3.67;2.05;;;;;;;5.64;43.39;101343.31;5051023;28;20049;-76
2023/03/05 09:41:04;;;;;;;4.97;2.10;;;;;;;5.66;43.67;101334.13;5014226;28;20045;-76
2023/03/05 09:43:44;;;;;;;3.50;1.92;;;;;;;5.66;43.46;101331.41;5051189;28;20052;-77
2023/03/05 09:46:37;;;;;;;3.60;1.85;;;;;;;5.68;43.97;101332.22;5032513;28;20106;-76
2023/03/05 09:49:32;;;;;;;4.15;1.98;;;;;;;5.68;43.61;101328.63;5049972;28;20072;-76
2023/03/05 09:52:07;;;;;;;4.38;1.80;;;;;;;5.70;43.68;101331.25;5046736;28;20051;-76
2023/03/05 09:54:41;;;;;;;4.10;2.08;;;;;;;5.69;43.58;101324.94;5048515;28;20037;-77
2023/03/05 09:57:16;;;;;;;4.43;2.20;;;;;;;5.72;43.72;101335.59;5052108;28;20045;-77
2023/03/05 09:59:49;;;;;;;4.60;2.03;;;;;;;5.72;43.51;101332.00;5021698;28;20046;-76
2023/03/05 10:02:25;;;;;;;4.85;2.10;;;;;;;5.73;43.76;101331.03;5030431;28;20045;-76
2023/03/05 10:04:57;;;;;;;4.07;2.00;;;;;;;5.71;43.50;101324.84;5049995;28;20539;-76
2023/03/05 10:07:29;;;;;;;4.22;2.03;;;;;;;5.68;43.53;101332.22;5033443;28;20044;-76
2023/03/05 10:10:00;;;;;;;3.90;2.22;;;;;;;5.70;43.70;101328.53;5032498;28;20041;-76
2023/03/05 10:12:41;;;;;;;5.13;2.25;;;;;;;5.70;43.94;101323.97;5043949;28;20497;-76
2023/03/05 10:15:12;;;;;;;4.47;2.50;;;;;;;5.70;43.60;101315.84;5032153;28;20480;-77
2023/03/05 10:17:56;;;;;;;5.00;2.72;;;;;;;5.71;43.79;101314.84;5050929;28;20045;-76
2023/03/05 10:20:45;;;;;;;6.50;3.15;;;;;;;5.71;43.93;101314.00;5049514;28;20468;-77
2023/03/05 10:23:24;;;;;;;5.55;3.00;;;;;;;5.72;43.80;101313.88;5048185;28;20143;-77
2023/03/05 10:26:03;;;;;;;4.40;3.10;;;;;;;5.74;43.87;101302.94;5050629;28;20073;-77
2023/03/05 10:28:42;;;;;;;5.68;3.38;;;;;;;5.74;43.91;101301.09;5040989;28;20048;-76
2023/03/05 10:31:37;;;;;;;4.80;3.33;;;;;;;5.77;43.95;101291.88;5033051;28;20048;-76
2023/03/05 10:34:32;;;;;;;3.75;2.70;;;;;;;5.77;43.99;101286.47;5043776;28;20040;-77
2023/03/05 10:37:32;;;;;;;4.65;2.65;;;;;;;5.78;43.92;101283.66;5046690;28;20045;-76
2023/03/05 10:40:14;;;;;;;7.13;2.95;;;;;;;5.82;43.87;101287.03;5001303;28;20136;-76
2023/03/05 10:42:50;;;;;;;4.68;2.58;;;;;;;5.84;43.64;101287.81;5023752;28;20057;-76
2023/03/05 10:45:22;;;;;;;5.22;2.50;;;;;;;5.86;43.64;101291.34;5031970;28;20041;-77
2023/03/05 10:47:55;;;;;;;4.47;2.10;;;;;;;5.86;43.49;101285.91;5038118;28;20060;-77
2023/03/05 10:50:26;;;;;;;4.23;2.40;;;;;;;5.89;43.52;101282.97;5043365;28;20051;-77
2023/03/05 10:53:13;;;;;;;4.07;2.42;;;;;;;5.93;43.86;101270.97;5057992;28;20295;-77
2023/03/05 10:55:41;;;;;;;3.40;2.30;;;;;;;5.94;43.75;101275.44;5050888;28;20106;-76
2023/03/05 10:58:11;;;;;;;4.10;2.25;;;;;;;5.98;43.64;101269.69;5040268;28;20049;-76
2023/03/05 11:00:40;;;;;;;5.13;2.50;;;;;;;6.01;43.73;101268.66;5014480;28;20465;-77
2023/03/05 11:03:10;;;;;;;4.30;2.70;;;;;;;6.07;43.46;101265.53;5032138;28;20551;-76
2023/03/05 11:05:48;;;;;;;4.55;2.70;;;;;;;6.12;43.17;101268.84;5020817;28;20045;-76
2023/03/05 11:08:29;;;;;;;5.22;2.75;;;;;;;6.15;43.39;101257.78;5028626;28;20512;-76
2023/03/05 11:11:11;;;;;;;4.15;2.60;;;;;;;6.17;43.34;101258.56;5030626;28;20055;-76
2023/03/05 11:13:49;;;;;;;4.50;2.60;;;;;;;6.20;43.37;101257.50;5030563;28;20404;-76
2023/03/05 11:16:21;;;;;;;3.85;2.53;;;;;;;6.23;43.31;101260.00;5030786;28;20044;-76
2023/03/05 11:18:49;;;;;;;4.13;2.42;;;;;;;6.26;43.30;101248.97;5004779;28;20045;-76
2023/03/05 11:21:26;;;;;;;4.35;2.28;;;;;;;6.30;43.27;101243.22;5032463;28;20048;-76
2023/03/05 11:24:05;;;;;;;5.05;2.88;;;;;;;6.35;43.19;101242.94;5039498;28;20053;-77
2023/03/05 11:26:36;;;;;;;5.47;2.70;;;;;;;6.37;43.18;101239.13;5031940;28;20571;-77
2023/03/05 11:29:18;;;;;;;4.57;2.60;;;;;;;6.43;42.97;101235.16;5035195;28;20041;-76
2023/03/05 11:31:46;;;;;;;3.10;2.00;;;;;;;6.44;43.13;101229.63;5031930;28;20063;-77
2023/03/05 11:34:30;;;;;;;3.97;2.17;;;;;;;6.51;42.38;101224.66;5017846;28;20076;-77
2023/03/05 11:37:05;;;;;;;4.90;2.53;;;;;;;6.53;42.58;101227.31;5040151;28;20041;-77
2023/03/05 11:39:39;;;;;;;4.30;2.30;;;;;;;6.56;42.96;101225.22;5014571;28;20096;-77
2023/03/05 11:42:12;;;;;;;6.25;2.67;;;;;;;6.60;42.64;101221.34;5024086;28;20060;-77
2023/03/05 11:44:47;;;;;;;4.75;3.00;;;;;;;6.64;42.41;101222.00;5030443;28;20428;-76
2023/03/05 11:47:26;;;;;;;6.10;2.72;;;;;;;6.67;42.49;101221.81;5031294;28;20056;-76
2023/03/05 11:50:00;;;;;;;4.40;2.90;;;;;;;6.66;42.56;101218.22;5048253;28;20415;-77